sensor_id;sensor_type;location;lat;lon;timestamp;P1;durP1;ratioP1;P2;durP2;ratioP2
48823;SDS011;34640;53.590;10.054;2022-10-16T00:01:55;11.65;;;6.00;;
48823;SDS011;34640;53.590;10.054;2022-10-16T00:04:29;12.75;;;5.78;;
48823;SDS011;34640;53.590;10.054;2022-10-16T00:07:02;12.40;;;5.63;;
48823;SDS011;34640;53.590;10.054;2022-10-16T00:09:36;10.98;;;5.70;;
48823;SDS011;34640;53.590;10.054;2022-10-16T00:12:10;12.57;;;5.57;;
48823;SDS011;34640;53.590;10.054;2022-10-16T00:14:43;8.88;;;5.00;;
48823;SDS011;34640;53.590;10.054;2022-10-16T00:17:18;6.57;;;4.20;;
48823;SDS011;34640;53.590;10.054;2022-10-16T00:19:52;6.93;;;4.05;;
48823;SDS011;34640;53.590;10.054;2022-10-16T00:22:26;8.63;;;4.03;;
48823;SDS011;34640;53.590;10.054;2022-10-16T00:25:00;7.43;;;4.72;;
48823;SDS011;34640;53.590;10.054;2022-10-16T00:27:34;5.45;;;3.13;;
48823;SDS011;34640;53.590;10.054;2022-10-16T00:30:08;7.70;;;3.20;;
48823;SDS011;34640;53.590;10.054;2022-10-16T00:32:43;10.07;;;3.35;;
48823;SDS011;34640;53.590;10.054;2022-10-16T00:35:17;7.60;;;2.78;;
48823;SDS011;34640;53.590;10.054;2022-10-16T00:37:51;5.50;;;2.50;;
48823;SDS011;34640;53.590;10.054;2022-10-16T00:40:24;5.93;;;2.60;;
48823;SDS011;34640;53.590;10.054;2022-10-16T00:43:00;10.25;;;2.33;;
48823;SDS011;34640;53.590;10.054;2022-10-16T00:45:34;7.57;;;2.00;;
48823;SDS011;34640;53.590;10.054;2022-10-16T00:48:11;6.20;;;2.30;;
48823;SDS011;34640;53.590;10.054;2022-10-16T00:50:47;6.65;;;1.98;;
48823;SDS011;34640;53.590;10.054;2022-10-16T00:53:21;7.25;;;2.03;;
48823;SDS011;34640;53.590;10.054;2022-10-16T00:55:55;5.82;;;1.65;;
48823;SDS011;34640;53.590;10.054;2022-10-16T00:58:29;8.85;;;2.25;;
48823;SDS011;34640;53.590;10.054;2022-10-16T01:01:03;6.43;;;2.15;;
48823;SDS011;34640;53.590;10.054;2022-10-16T01:03:38;5.53;;;1.95;;
48823;SDS011;34640;53.590;10.054;2022-10-16T01:06:17;5.85;;;2.10;;
48823;SDS011;34640;53.590;10.054;2022-10-16T01:09:06;5.55;;;1.60;;
48823;SDS011;34640;53.590;10.054;2022-10-16T01:11:49;4.20;;;1.45;;
48823;SDS011;34640;53.590;10.054;2022-10-16T01:14:32;7.20;;;1.30;;
48823;SDS011;34640;53.590;10.054;2022-10-16T01:17:14;5.97;;;1.17;;
48823;SDS011;34640;53.590;10.054;2022-10-16T01:20:01;4.93;;;1.15;;
48823;SDS011;34640;53.590;10.054;2022-10-16T01:22:43;6.65;;;1.27;;
48823;SDS011;34640;53.590;10.054;2022-10-16T01:25:36;6.95;;;1.33;;
48823;SDS011;34640;53.590;10.054;2022-10-16T01:28:24;6.05;;;1.15;;
48823;SDS011;34640;53.590;10.054;2022-10-16T01:31:05;5.50;;;1.35;;
48823;SDS011;34640;53.590;10.054;2022-10-16T01:33:42;5.80;;;1.55;;
48823;SDS011;34640;53.590;10.054;2022-10-16T01:36:20;3.95;;;1.40;;
48823;SDS011;34640;53.590;10.054;2022-10-16T01:39:00;5.85;;;1.33;;
48823;SDS011;34640;53.590;10.054;2022-10-16T01:41:34;4.72;;;1.45;;
48823;SDS011;34640;53.590;10.054;2022-10-16T01:44:15;7.25;;;1.48;;
48823;SDS011;34640;53.590;10.054;2022-10-16T01:46:52;6.45;;;1.52;;
48823;SDS011;34640;53.590;10.054;2022-10-16T01:49:27;4.43;;;1.40;;
48823;SDS011;34640;53.590;10.054;2022-10-16T01:52:06;5.38;;;1.60;;
48823;SDS011;34640;53.590;10.054;2022-10-16T01:54:43;8.40;;;1.83;;
48823;SDS011;34640;53.590;10.054;2022-10-16T01:57:20;3.85;;;1.60;;
48823;SDS011;34640;53.590;10.054;2022-10-16T02:00:00;12.85;;;1.92;;
48823;SDS011;34640;53.590;10.054;2022-10-16T02:02:38;3.72;;;1.40;;
48823;SDS011;34640;53.590;10.054;2022-10-16T02:05:15;3.60;;;1.40;;
48823;SDS011;34640;53.590;10.054;2022-10-16T02:07:53;6.55;;;1.52;;
48823;SDS011;34640;53.590;10.054;2022-10-16T02:10:31;5.45;;;1.75;;
48823;SDS011;34640;53.590;10.054;2022-10-16T02:13:31;6.38;;;2.10;;
48823;SDS011;34640;53.590;10.054;2022-10-16T02:16:12;3.95;;;1.55;;
48823;SDS011;34640;53.590;10.054;2022-10-16T02:18:46;8.98;;;1.55;;
48823;SDS011;34640;53.590;10.054;2022-10-16T02:21:22;5.35;;;1.58;;
48823;SDS011;34640;53.590;10.054;2022-10-16T02:24:00;5.53;;;1.58;;
48823;SDS011;34640;53.590;10.054;2022-10-16T02:26:42;3.20;;;1.60;;
48823;SDS011;34640;53.590;10.054;2022-10-16T02:29:22;3.15;;;1.23;;
48823;SDS011;34640;53.590;10.054;2022-10-16T02:32:00;7.55;;;1.40;;
48823;SDS011;34640;53.590;10.054;2022-10-16T02:34:37;7.90;;;1.40;;
48823;SDS011;34640;53.590;10.054;2022-10-16T02:37:13;8.60;;;1.42;;
48823;SDS011;34640;53.590;10.054;2022-10-16T02:39:48;7.35;;;1.70;;
48823;SDS011;34640;53.590;10.054;2022-10-16T02:42:27;6.60;;;1.35;;
48823;SDS011;34640;53.590;10.054;2022-10-16T02:45:02;2.60;;;1.40;;
48823;SDS011;34640;53.590;10.054;2022-10-16T02:47:37;4.93;;;1.55;;
48823;SDS011;34640;53.590;10.054;2022-10-16T02:50:11;6.10;;;1.65;;
48823;SDS011;34640;53.590;10.054;2022-10-16T02:52:45;6.38;;;1.38;;
48823;SDS011;34640;53.590;10.054;2022-10-16T02:55:18;5.32;;;1.40;;
48823;SDS011;34640;53.590;10.054;2022-10-16T02:57:52;4.45;;;1.30;;
48823;SDS011;34640;53.590;10.054;2022-10-16T03:00:26;5.10;;;1.50;;
48823;SDS011;34640;53.590;10.054;2022-10-16T03:03:02;8.07;;;1.50;;
48823;SDS011;34640;53.590;10.054;2022-10-16T03:05:35;4.75;;;1.08;;
48823;SDS011;34640;53.590;10.054;2022-10-16T03:08:09;5.15;;;1.45;;
48823;SDS011;34640;53.590;10.054;2022-10-16T03:10:43;3.85;;;1.27;;
48823;SDS011;34640;53.590;10.054;2022-10-16T03:13:17;7.72;;;1.67;;
48823;SDS011;34640;53.590;10.054;2022-10-16T03:15:52;5.15;;;1.58;;
48823;SDS011;34640;53.590;10.054;2022-10-16T03:18:27;6.25;;;1.45;;
48823;SDS011;34640;53.590;10.054;2022-10-16T03:21:01;5.28;;;1.48;;
48823;SDS011;34640;53.590;10.054;2022-10-16T03:23:35;3.42;;;1.38;;
48823;SDS011;34640;53.590;10.054;2022-10-16T03:26:08;6.45;;;1.60;;
48823;SDS011;34640;53.590;10.054;2022-10-16T03:28:42;5.95;;;1.65;;
48823;SDS011;34640;53.590;10.054;2022-10-16T03:31:16;7.28;;;1.58;;
48823;SDS011;34640;53.590;10.054;2022-10-16T03:33:51;6.57;;;1.60;;
48823;SDS011;34640;53.590;10.054;2022-10-16T03:36:25;5.80;;;1.45;;
48823;SDS011;34640;53.590;10.054;2022-10-16T03:38:59;5.68;;;1.63;;
48823;SDS011;34640;53.590;10.054;2022-10-16T03:41:32;4.85;;;1.27;;
48823;SDS011;34640;53.590;10.054;2022-10-16T03:44:06;4.35;;;1.45;;
48823;SDS011;34640;53.590;10.054;2022-10-16T03:46:40;6.15;;;1.50;;
48823;SDS011;34640;53.590;10.054;2022-10-16T03:49:15;4.00;;;1.40;;
48823;SDS011;34640;53.590;10.054;2022-10-16T03:51:49;4.68;;;1.40;;
48823;SDS011;34640;53.590;10.054;2022-10-16T03:54:22;5.93;;;1.20;;
48823;SDS011;34640;53.590;10.054;2022-10-16T03:56:56;5.30;;;1.40;;
48823;SDS011;34640;53.590;10.054;2022-10-16T03:59:30;4.15;;;1.48;;
48823;SDS011;34640;53.590;10.054;2022-10-16T04:02:04;6.50;;;2.13;;
48823;SDS011;34640;53.590;10.054;2022-10-16T04:04:39;9.63;;;1.60;;
48823;SDS011;34640;53.590;10.054;2022-10-16T04:07:12;5.53;;;1.58;;
48823;SDS011;34640;53.590;10.054;2022-10-16T04:09:46;3.42;;;1.42;;
48823;SDS011;34640;53.590;10.054;2022-10-16T04:12:20;4.20;;;1.30;;
48823;SDS011;34640;53.590;10.054;2022-10-16T04:14:53;3.60;;;1.02;;
48823;SDS011;34640;53.590;10.054;2022-10-16T04:17:27;7.93;;;1.35;;
48823;SDS011;34640;53.590;10.054;2022-10-16T04:20:03;7.40;;;1.45;;
48823;SDS011;34640;53.590;10.054;2022-10-16T04:22:37;2.75;;;1.20;;
48823;SDS011;34640;53.590;10.054;2022-10-16T04:25:11;2.67;;;1.10;;
48823;SDS011;34640;53.590;10.054;2022-10-16T04:27:44;4.10;;;1.10;;
48823;SDS011;34640;53.590;10.054;2022-10-16T04:30:19;4.20;;;1.50;;
48823;SDS011;34640;53.590;10.054;2022-10-16T04:32:53;5.15;;;1.27;;
48823;SDS011;34640;53.590;10.054;2022-10-16T04:35:28;5.32;;;1.30;;
48823;SDS011;34640;53.590;10.054;2022-10-16T04:38:01;8.10;;;1.10;;
48823;SDS011;34640;53.590;10.054;2022-10-16T04:40:35;6.72;;;1.80;;
48823;SDS011;34640;53.590;10.054;2022-10-16T04:43:09;4.72;;;1.20;;
48823;SDS011;34640;53.590;10.054;2022-10-16T04:45:43;4.72;;;1.30;;
48823;SDS011;34640;53.590;10.054;2022-10-16T04:48:17;3.15;;;1.23;;
48823;SDS011;34640;53.590;10.054;2022-10-16T04:50:52;6.22;;;1.55;;
48823;SDS011;34640;53.590;10.054;2022-10-16T04:53:26;4.60;;;1.33;;
48823;SDS011;34640;53.590;10.054;2022-10-16T04:56:00;3.35;;;1.20;;
48823;SDS011;34640;53.590;10.054;2022-10-16T04:58:34;4.50;;;1.30;;
48823;SDS011;34640;53.590;10.054;2022-10-16T05:01:08;3.97;;;1.20;;
48823;SDS011;34640;53.590;10.054;2022-10-16T05:03:42;7.25;;;1.25;;
48823;SDS011;34640;53.590;10.054;2022-10-16T05:06:17;5.47;;;1.33;;
48823;SDS011;34640;53.590;10.054;2022-10-16T05:08:51;6.78;;;1.48;;
48823;SDS011;34640;53.590;10.054;2022-10-16T05:11:25;5.00;;;1.20;;
48823;SDS011;34640;53.590;10.054;2022-10-16T05:13:58;7.32;;;1.65;;
48823;SDS011;34640;53.590;10.054;2022-10-16T05:16:32;5.97;;;2.20;;
48823;SDS011;34640;53.590;10.054;2022-10-16T05:19:06;5.10;;;1.45;;
48823;SDS011;34640;53.590;10.054;2022-10-16T05:22:00;6.43;;;1.75;;
48823;SDS011;34640;53.590;10.054;2022-10-16T05:24:33;5.57;;;1.95;;
48823;SDS011;34640;53.590;10.054;2022-10-16T05:27:07;4.78;;;1.63;;
48823;SDS011;34640;53.590;10.054;2022-10-16T05:29:41;3.60;;;1.50;;
48823;SDS011;34640;53.590;10.054;2022-10-16T05:32:16;4.90;;;1.60;;
48823;SDS011;34640;53.590;10.054;2022-10-16T05:34:50;7.00;;;1.67;;
48823;SDS011;34640;53.590;10.054;2022-10-16T05:37:25;2.38;;;1.35;;
48823;SDS011;34640;53.590;10.054;2022-10-16T05:40:00;4.93;;;1.38;;
48823;SDS011;34640;53.590;10.054;2022-10-16T05:42:37;7.80;;;2.33;;
48823;SDS011;34640;53.590;10.054;2022-10-16T05:45:10;7.40;;;1.90;;
48823;SDS011;34640;53.590;10.054;2022-10-16T05:47:45;4.55;;;1.40;;
48823;SDS011;34640;53.590;10.054;2022-10-16T05:50:18;5.95;;;1.90;;
48823;SDS011;34640;53.590;10.054;2022-10-16T05:52:54;4.75;;;1.58;;
48823;SDS011;34640;53.590;10.054;2022-10-16T05:55:28;8.95;;;1.60;;
48823;SDS011;34640;53.590;10.054;2022-10-16T05:58:01;7.95;;;1.60;;
48823;SDS011;34640;53.590;10.054;2022-10-16T06:00:35;3.45;;;1.70;;
48823;SDS011;34640;53.590;10.054;2022-10-16T06:03:09;8.30;;;2.30;;
48823;SDS011;34640;53.590;10.054;2022-10-16T06:05:42;7.93;;;2.60;;
48823;SDS011;34640;53.590;10.054;2022-10-16T06:08:17;5.90;;;1.70;;
48823;SDS011;34640;53.590;10.054;2022-10-16T06:11:00;5.32;;;1.58;;
48823;SDS011;34640;53.590;10.054;2022-10-16T06:13:34;9.82;;;1.90;;
48823;SDS011;34640;53.590;10.054;2022-10-16T06:16:08;7.47;;;1.77;;
48823;SDS011;34640;53.590;10.054;2022-10-16T06:18:42;8.15;;;1.90;;
48823;SDS011;34640;53.590;10.054;2022-10-16T06:21:17;7.80;;;1.67;;
48823;SDS011;34640;53.590;10.054;2022-10-16T06:23:53;7.53;;;2.45;;
48823;SDS011;34640;53.590;10.054;2022-10-16T06:26:28;4.38;;;2.28;;
48823;SDS011;34640;53.590;10.054;2022-10-16T06:29:03;9.30;;;2.58;;
48823;SDS011;34640;53.590;10.054;2022-10-16T06:31:37;8.20;;;2.40;;
48823;SDS011;34640;53.590;10.054;2022-10-16T06:34:11;4.28;;;1.67;;
48823;SDS011;34640;53.590;10.054;2022-10-16T06:36:45;5.80;;;2.05;;
48823;SDS011;34640;53.590;10.054;2022-10-16T06:39:20;10.23;;;2.33;;
48823;SDS011;34640;53.590;10.054;2022-10-16T06:41:53;7.68;;;3.08;;
48823;SDS011;34640;53.590;10.054;2022-10-16T06:44:27;7.88;;;2.33;;
48823;SDS011;34640;53.590;10.054;2022-10-16T06:47:01;7.93;;;2.30;;
48823;SDS011;34640;53.590;10.054;2022-10-16T06:49:35;7.68;;;2.03;;
48823;SDS011;34640;53.590;10.054;2022-10-16T06:52:09;5.03;;;2.15;;
48823;SDS011;34640;53.590;10.054;2022-10-16T06:54:44;5.50;;;2.30;;
48823;SDS011;34640;53.590;10.054;2022-10-16T06:57:18;10.13;;;2.40;;
48823;SDS011;34640;53.590;10.054;2022-10-16T06:59:51;4.55;;;2.05;;
48823;SDS011;34640;53.590;10.054;2022-10-16T07:02:26;5.65;;;2.17;;
48823;SDS011;34640;53.590;10.054;2022-10-16T07:05:01;6.03;;;2.55;;
48823;SDS011;34640;53.590;10.054;2022-10-16T07:07:34;10.07;;;2.50;;
48823;SDS011;34640;53.590;10.054;2022-10-16T07:10:09;5.72;;;2.05;;
48823;SDS011;34640;53.590;10.054;2022-10-16T07:12:43;6.05;;;2.38;;
48823;SDS011;34640;53.590;10.054;2022-10-16T07:15:17;8.15;;;2.50;;
48823;SDS011;34640;53.590;10.054;2022-10-16T07:17:50;7.63;;;1.95;;
48823;SDS011;34640;53.590;10.054;2022-10-16T07:20:24;7.32;;;2.40;;
48823;SDS011;34640;53.590;10.054;2022-10-16T07:22:58;9.73;;;2.50;;
48823;SDS011;34640;53.590;10.054;2022-10-16T07:25:33;8.18;;;2.50;;
48823;SDS011;34640;53.590;10.054;2022-10-16T07:28:07;9.73;;;2.60;;
48823;SDS011;34640;53.590;10.054;2022-10-16T07:30:42;11.13;;;2.50;;
48823;SDS011;34640;53.590;10.054;2022-10-16T07:33:15;7.07;;;2.25;;
48823;SDS011;34640;53.590;10.054;2022-10-16T07:35:50;7.85;;;2.33;;
48823;SDS011;34640;53.590;10.054;2022-10-16T07:38:24;4.80;;;2.40;;
48823;SDS011;34640;53.590;10.054;2022-10-16T07:41:00;9.45;;;3.53;;
48823;SDS011;34640;53.590;10.054;2022-10-16T07:43:34;6.65;;;2.20;;
48823;SDS011;34640;53.590;10.054;2022-10-16T07:46:08;4.57;;;2.50;;
48823;SDS011;34640;53.590;10.054;2022-10-16T07:48:42;6.82;;;2.13;;
48823;SDS011;34640;53.590;10.054;2022-10-16T07:51:20;5.25;;;2.20;;
48823;SDS011;34640;53.590;10.054;2022-10-16T07:53:55;7.03;;;2.08;;
48823;SDS011;34640;53.590;10.054;2022-10-16T07:56:31;5.82;;;2.08;;
48823;SDS011;34640;53.590;10.054;2022-10-16T07:59:05;4.78;;;1.95;;
48823;SDS011;34640;53.590;10.054;2022-10-16T08:01:39;8.52;;;2.25;;
48823;SDS011;34640;53.590;10.054;2022-10-16T08:04:14;5.00;;;2.05;;
48823;SDS011;34640;53.590;10.054;2022-10-16T08:06:48;5.30;;;1.58;;
48823;SDS011;34640;53.590;10.054;2022-10-16T08:09:21;5.10;;;2.33;;
48823;SDS011;34640;53.590;10.054;2022-10-16T08:11:57;5.20;;;2.00;;
48823;SDS011;34640;53.590;10.054;2022-10-16T08:14:33;2.53;;;1.60;;
48823;SDS011;34640;53.590;10.054;2022-10-16T08:17:07;6.85;;;2.15;;
48823;SDS011;34640;53.590;10.054;2022-10-16T08:19:43;5.65;;;1.75;;
48823;SDS011;34640;53.590;10.054;2022-10-16T08:22:18;5.13;;;1.77;;
48823;SDS011;34640;53.590;10.054;2022-10-16T08:24:52;8.35;;;2.20;;
48823;SDS011;34640;53.590;10.054;2022-10-16T08:27:31;5.00;;;1.80;;
48823;SDS011;34640;53.590;10.054;2022-10-16T08:30:06;6.25;;;2.22;;
48823;SDS011;34640;53.590;10.054;2022-10-16T08:32:41;10.13;;;2.50;;
48823;SDS011;34640;53.590;10.054;2022-10-16T08:35:15;6.53;;;2.22;;
48823;SDS011;34640;53.590;10.054;2022-10-16T08:37:49;6.65;;;3.00;;
48823;SDS011;34640;53.590;10.054;2022-10-16T08:40:23;6.03;;;1.77;;
48823;SDS011;34640;53.590;10.054;2022-10-16T08:43:09;8.50;;;2.20;;
48823;SDS011;34640;53.590;10.054;2022-10-16T08:46:00;7.85;;;2.33;;
48823;SDS011;34640;53.590;10.054;2022-10-16T08:48:48;6.43;;;2.13;;
48823;SDS011;34640;53.590;10.054;2022-10-16T08:51:23;5.32;;;2.53;;
48823;SDS011;34640;53.590;10.054;2022-10-16T08:54:01;9.88;;;2.85;;
48823;SDS011;34640;53.590;10.054;2022-10-16T08:56:37;5.43;;;1.70;;
48823;SDS011;34640;53.590;10.054;2022-10-16T08:59:12;5.43;;;1.77;;
48823;SDS011;34640;53.590;10.054;2022-10-16T09:01:48;4.90;;;1.55;;
48823;SDS011;34640;53.590;10.054;2022-10-16T09:07:28;6.07;;;2.10;;
48823;SDS011;34640;53.590;10.054;2022-10-16T09:10:11;6.45;;;2.00;;
48823;SDS011;34640;53.590;10.054;2022-10-16T09:12:54;5.55;;;1.90;;
48823;SDS011;34640;53.590;10.054;2022-10-16T09:15:38;4.18;;;1.60;;
48823;SDS011;34640;53.590;10.054;2022-10-16T09:18:18;7.50;;;2.10;;
48823;SDS011;34640;53.590;10.054;2022-10-16T09:21:08;5.90;;;1.70;;
48823;SDS011;34640;53.590;10.054;2022-10-16T09:23:45;7.18;;;1.80;;
48823;SDS011;34640;53.590;10.054;2022-10-16T09:26:21;4.90;;;1.98;;
48823;SDS011;34640;53.590;10.054;2022-10-16T09:29:00;8.32;;;1.70;;
48823;SDS011;34640;53.590;10.054;2022-10-16T09:31:35;4.35;;;1.40;;
48823;SDS011;34640;53.590;10.054;2022-10-16T09:34:13;5.50;;;1.63;;
48823;SDS011;34640;53.590;10.054;2022-10-16T09:37:03;4.90;;;1.60;;
48823;SDS011;34640;53.590;10.054;2022-10-16T09:39:46;7.80;;;1.27;;
48823;SDS011;34640;53.590;10.054;2022-10-16T09:42:22;5.85;;;1.67;;
48823;SDS011;34640;53.590;10.054;2022-10-16T09:45:00;3.90;;;1.40;;
48823;SDS011;34640;53.590;10.054;2022-10-16T09:47:37;5.88;;;1.60;;
48823;SDS011;34640;53.590;10.054;2022-10-16T09:50:20;4.57;;;1.33;;
48823;SDS011;34640;53.590;10.054;2022-10-16T09:53:08;7.95;;;2.38;;
48823;SDS011;34640;53.590;10.054;2022-10-16T09:55:55;3.90;;;1.20;;
48823;SDS011;34640;53.590;10.054;2022-10-16T09:58:30;5.57;;;1.00;;
48823;SDS011;34640;53.590;10.054;2022-10-16T10:01:11;2.70;;;0.93;;
48823;SDS011;34640;53.590;10.054;2022-10-16T10:03:48;8.15;;;1.77;;
48823;SDS011;34640;53.590;10.054;2022-10-16T10:06:25;7.00;;;1.33;;
48823;SDS011;34640;53.590;10.054;2022-10-16T10:09:04;9.40;;;1.35;;
48823;SDS011;34640;53.590;10.054;2022-10-16T10:11:51;9.20;;;1.60;;
48823;SDS011;34640;53.590;10.054;2022-10-16T10:14:28;7.35;;;1.10;;
48823;SDS011;34640;53.590;10.054;2022-10-16T10:17:13;6.28;;;1.52;;
48823;SDS011;34640;53.590;10.054;2022-10-16T10:19:51;5.97;;;1.42;;
48823;SDS011;34640;53.590;10.054;2022-10-16T10:22:31;3.05;;;1.02;;
48823;SDS011;34640;53.590;10.054;2022-10-16T10:25:15;5.15;;;1.67;;
48823;SDS011;34640;53.590;10.054;2022-10-16T10:28:06;4.03;;;1.52;;
48823;SDS011;34640;53.590;10.054;2022-10-16T10:30:54;7.80;;;1.92;;
48823;SDS011;34640;53.590;10.054;2022-10-16T10:33:36;10.25;;;1.98;;
48823;SDS011;34640;53.590;10.054;2022-10-16T10:36:25;7.47;;;1.60;;
48823;SDS011;34640;53.590;10.054;2022-10-16T10:39:03;4.72;;;1.50;;
48823;SDS011;34640;53.590;10.054;2022-10-16T10:41:55;7.22;;;1.75;;
48823;SDS011;34640;53.590;10.054;2022-10-16T10:47:38;5.70;;;1.23;;
48823;SDS011;34640;53.590;10.054;2022-10-16T10:50:22;5.70;;;1.25;;
48823;SDS011;34640;53.590;10.054;2022-10-16T10:53:11;9.43;;;2.22;;
48823;SDS011;34640;53.590;10.054;2022-10-16T10:55:59;4.32;;;1.50;;
48823;SDS011;34640;53.590;10.054;2022-10-16T11:01:52;6.30;;;1.58;;
48823;SDS011;34640;53.590;10.054;2022-10-16T11:04:34;3.10;;;0.98;;
48823;SDS011;34640;53.590;10.054;2022-10-16T11:07:24;5.45;;;1.05;;
48823;SDS011;34640;53.590;10.054;2022-10-16T11:10:04;3.45;;;1.10;;
48823;SDS011;34640;53.590;10.054;2022-10-16T11:12:47;3.00;;;0.90;;
48823;SDS011;34640;53.590;10.054;2022-10-16T11:15:25;4.20;;;1.00;;
48823;SDS011;34640;53.590;10.054;2022-10-16T11:18:03;4.13;;;1.00;;
48823;SDS011;34640;53.590;10.054;2022-10-16T11:20:42;2.53;;;0.73;;
48823;SDS011;34640;53.590;10.054;2022-10-16T11:23:21;9.98;;;1.55;;
48823;SDS011;34640;53.590;10.054;2022-10-16T11:26:02;2.97;;;0.90;;
48823;SDS011;34640;53.590;10.054;2022-10-16T11:28:42;4.32;;;1.25;;
48823;SDS011;34640;53.590;10.054;2022-10-16T11:31:21;11.60;;;1.50;;
48823;SDS011;34640;53.590;10.054;2022-10-16T11:34:02;6.22;;;1.67;;
48823;SDS011;34640;53.590;10.054;2022-10-16T11:36:49;7.30;;;1.52;;
48823;SDS011;34640;53.590;10.054;2022-10-16T11:39:30;6.65;;;1.05;;
48823;SDS011;34640;53.590;10.054;2022-10-16T11:42:08;5.32;;;1.30;;
48823;SDS011;34640;53.590;10.054;2022-10-16T11:44:50;3.90;;;0.90;;
48823;SDS011;34640;53.590;10.054;2022-10-16T11:47:33;3.83;;;0.90;;
48823;SDS011;34640;53.590;10.054;2022-10-16T11:50:29;4.70;;;1.25;;
48823;SDS011;34640;53.590;10.054;2022-10-16T11:53:11;6.25;;;1.30;;
48823;SDS011;34640;53.590;10.054;2022-10-16T11:55:50;3.65;;;1.23;;
48823;SDS011;34640;53.590;10.054;2022-10-16T11:58:26;8.48;;;1.38;;
48823;SDS011;34640;53.590;10.054;2022-10-16T12:01:12;6.80;;;1.10;;
48823;SDS011;34640;53.590;10.054;2022-10-16T12:03:55;3.30;;;1.23;;
48823;SDS011;34640;53.590;10.054;2022-10-16T12:06:43;4.97;;;1.13;;
48823;SDS011;34640;53.590;10.054;2022-10-16T12:09:21;8.80;;;1.67;;
48823;SDS011;34640;53.590;10.054;2022-10-16T12:11:58;5.90;;;1.17;;
48823;SDS011;34640;53.590;10.054;2022-10-16T12:14:38;4.55;;;1.08;;
48823;SDS011;34640;53.590;10.054;2022-10-16T12:17:34;4.55;;;1.40;;
48823;SDS011;34640;53.590;10.054;2022-10-16T12:20:19;7.68;;;1.50;;
48823;SDS011;34640;53.590;10.054;2022-10-16T12:22:59;4.05;;;0.93;;
48823;SDS011;34640;53.590;10.054;2022-10-16T12:25:35;6.18;;;0.90;;
48823;SDS011;34640;53.590;10.054;2022-10-16T12:28:19;4.40;;;1.42;;
48823;SDS011;34640;53.590;10.054;2022-10-16T12:30:56;5.95;;;1.30;;
48823;SDS011;34640;53.590;10.054;2022-10-16T12:33:32;6.32;;;1.25;;
48823;SDS011;34640;53.590;10.054;2022-10-16T12:36:09;8.15;;;1.45;;
48823;SDS011;34640;53.590;10.054;2022-10-16T12:38:51;8.23;;;1.70;;
48823;SDS011;34640;53.590;10.054;2022-10-16T12:41:26;9.60;;;1.80;;
48823;SDS011;34640;53.590;10.054;2022-10-16T12:44:01;3.35;;;0.75;;
48823;SDS011;34640;53.590;10.054;2022-10-16T12:46:38;8.52;;;2.05;;
48823;SDS011;34640;53.590;10.054;2022-10-16T12:49:21;6.00;;;1.52;;
48823;SDS011;34640;53.590;10.054;2022-10-16T12:52:03;8.50;;;2.00;;
48823;SDS011;34640;53.590;10.054;2022-10-16T12:54:37;13.77;;;3.90;;
48823;SDS011;34640;53.590;10.054;2022-10-16T12:57:21;6.55;;;1.70;;
48823;SDS011;34640;53.590;10.054;2022-10-16T13:00:13;6.65;;;1.40;;
48823;SDS011;34640;53.590;10.054;2022-10-16T13:03:03;10.98;;;1.08;;
48823;SDS011;34640;53.590;10.054;2022-10-16T13:06:00;7.15;;;1.00;;
48823;SDS011;34640;53.590;10.054;2022-10-16T13:08:49;7.65;;;2.60;;
48823;SDS011;34640;53.590;10.054;2022-10-16T13:11:41;3.95;;;0.95;;
48823;SDS011;34640;53.590;10.054;2022-10-16T13:17:26;7.25;;;1.48;;
48823;SDS011;34640;53.590;10.054;2022-10-16T13:20:16;7.50;;;1.10;;
48823;SDS011;34640;53.590;10.054;2022-10-16T13:22:57;8.55;;;1.23;;
48823;SDS011;34640;53.590;10.054;2022-10-16T13:25:42;6.57;;;1.55;;
48823;SDS011;34640;53.590;10.054;2022-10-16T13:28:27;6.15;;;1.33;;
48823;SDS011;34640;53.590;10.054;2022-10-16T13:31:03;7.20;;;1.88;;
48823;SDS011;34640;53.590;10.054;2022-10-16T13:33:38;10.52;;;2.13;;
48823;SDS011;34640;53.590;10.054;2022-10-16T13:36:19;6.10;;;1.77;;
48823;SDS011;34640;53.590;10.054;2022-10-16T13:39:01;6.97;;;1.85;;
48823;SDS011;34640;53.590;10.054;2022-10-16T13:41:43;9.27;;;1.55;;
48823;SDS011;34640;53.590;10.054;2022-10-16T13:44:18;7.80;;;2.72;;
48823;SDS011;34640;53.590;10.054;2022-10-16T13:46:58;7.38;;;1.52;;
48823;SDS011;34640;53.590;10.054;2022-10-16T13:49:32;7.43;;;2.75;;
48823;SDS011;34640;53.590;10.054;2022-10-16T13:52:17;8.60;;;2.47;;
48823;SDS011;34640;53.590;10.054;2022-10-16T13:54:51;8.50;;;1.63;;
48823;SDS011;34640;53.590;10.054;2022-10-16T13:57:32;6.32;;;1.45;;
48823;SDS011;34640;53.590;10.054;2022-10-16T14:00:17;4.03;;;1.13;;
48823;SDS011;34640;53.590;10.054;2022-10-16T14:02:53;6.35;;;1.45;;
48823;SDS011;34640;53.590;10.054;2022-10-16T14:05:32;13.63;;;2.05;;
48823;SDS011;34640;53.590;10.054;2022-10-16T14:08:10;7.75;;;1.48;;
48823;SDS011;34640;53.590;10.054;2022-10-16T14:10:47;6.30;;;1.65;;
48823;SDS011;34640;53.590;10.054;2022-10-16T14:13:26;3.85;;;0.88;;
48823;SDS011;34640;53.590;10.054;2022-10-16T14:16:05;8.55;;;1.48;;
48823;SDS011;34640;53.590;10.054;2022-10-16T14:18:44;9.15;;;1.50;;
48823;SDS011;34640;53.590;10.054;2022-10-16T14:21:19;9.48;;;2.15;;
48823;SDS011;34640;53.590;10.054;2022-10-16T14:23:54;6.07;;;1.40;;
48823;SDS011;34640;53.590;10.054;2022-10-16T14:26:28;7.75;;;2.42;;
48823;SDS011;34640;53.590;10.054;2022-10-16T14:29:04;11.80;;;3.72;;
48823;SDS011;34640;53.590;10.054;2022-10-16T14:31:53;9.15;;;1.40;;
48823;SDS011;34640;53.590;10.054;2022-10-16T14:34:29;8.23;;;1.52;;
48823;SDS011;34640;53.590;10.054;2022-10-16T14:37:06;8.48;;;1.50;;
48823;SDS011;34640;53.590;10.054;2022-10-16T14:39:52;7.75;;;2.53;;
48823;SDS011;34640;53.590;10.054;2022-10-16T14:42:27;10.45;;;3.13;;
48823;SDS011;34640;53.590;10.054;2022-10-16T14:45:07;7.88;;;2.97;;
48823;SDS011;34640;53.590;10.054;2022-10-16T14:47:46;8.35;;;1.40;;
48823;SDS011;34640;53.590;10.054;2022-10-16T14:50:23;7.18;;;1.60;;
48823;SDS011;34640;53.590;10.054;2022-10-16T14:52:57;8.70;;;2.20;;
48823;SDS011;34640;53.590;10.054;2022-10-16T14:55:33;7.68;;;1.60;;
48823;SDS011;34640;53.590;10.054;2022-10-16T15:00:48;4.85;;;1.38;;
48823;SDS011;34640;53.590;10.054;2022-10-16T15:03:22;13.65;;;4.90;;
48823;SDS011;34640;53.590;10.054;2022-10-16T15:05:56;11.20;;;3.42;;
48823;SDS011;34640;53.590;10.054;2022-10-16T15:08:30;10.27;;;2.40;;
48823;SDS011;34640;53.590;10.054;2022-10-16T15:11:05;10.93;;;2.33;;
48823;SDS011;34640;53.590;10.054;2022-10-16T15:13:42;9.25;;;1.40;;
48823;SDS011;34640;53.590;10.054;2022-10-16T15:16:16;3.40;;;1.17;;
48823;SDS011;34640;53.590;10.054;2022-10-16T15:18:50;9.02;;;2.22;;
48823;SDS011;34640;53.590;10.054;2022-10-16T15:21:27;10.50;;;2.42;;
48823;SDS011;34640;53.590;10.054;2022-10-16T15:24:02;7.50;;;2.55;;
48823;SDS011;34640;53.590;10.054;2022-10-16T15:26:37;9.25;;;2.33;;
48823;SDS011;34640;53.590;10.054;2022-10-16T15:29:11;8.88;;;2.47;;
48823;SDS011;34640;53.590;10.054;2022-10-16T15:31:45;10.38;;;3.28;;
48823;SDS011;34640;53.590;10.054;2022-10-16T15:34:19;8.32;;;2.45;;
48823;SDS011;34640;53.590;10.054;2022-10-16T15:36:53;11.02;;;1.45;;
48823;SDS011;34640;53.590;10.054;2022-10-16T15:39:28;7.78;;;2.10;;
48823;SDS011;34640;53.590;10.054;2022-10-16T15:42:04;12.43;;;4.15;;
48823;SDS011;34640;53.590;10.054;2022-10-16T15:44:38;11.00;;;2.60;;
48823;SDS011;34640;53.590;10.054;2022-10-16T15:47:12;7.32;;;2.15;;
48823;SDS011;34640;53.590;10.054;2022-10-16T15:49:45;13.52;;;3.03;;